sensor_id;sensor_type;location;lat;lon;timestamp;pressure;altitude;pressure_sealevel;temperature;humidity
39949;BME280;29070;48.102;-1.652;2023-04-26T00:00:46;101265.25;;;11.93;61.00
39949;BME280;29070;48.102;-1.652;2023-04-26T00:05:47;101266.47;;;11.90;61.22
39949;BME280;29070;48.102;-1.652;2023-04-26T00:10:47;101263.19;;;11.88;61.51
39949;BME280;29070;48.102;-1.652;2023-04-26T00:15:48;101245.94;;;11.86;61.37
39949;BME280;29070;48.102;-1.652;2023-04-26T00:20:48;101240.25;;;11.82;61.69
39949;BME280;29070;48.102;-1.652;2023-04-26T00:25:48;101246.91;;;11.78;61.68
39949;BME280;29070;48.102;-1.652;2023-04-26T00:30:49;101247.28;;;11.75;61.81
39949;BME280;29070;48.102;-1.652;2023-04-26T00:35:50;101252.09;;;11.71;61.92
39949;BME280;29070;48.102;-1.652;2023-04-26T00:40:50;101253.72;;;11.72;62.08
39949;BME280;29070;48.102;-1.652;2023-04-26T00:45:51;101258.19;;;11.72;62.40
39949;BME280;29070;48.102;-1.652;2023-04-26T00:50:51;101258.00;;;11.73;62.46
39949;BME280;29070;48.102;-1.652;2023-04-26T00:55:52;101254.94;;;11.70;62.50
39949;BME280;29070;48.102;-1.652;2023-04-26T01:00:53;101252.50;;;11.68;62.58
39949;BME280;29070;48.102;-1.652;2023-04-26T01:05:53;101252.50;;;11.68;62.73
39949;BME280;29070;48.102;-1.652;2023-04-26T01:10:54;101243.97;;;11.66;62.79
39949;BME280;29070;48.102;-1.652;2023-04-26T01:15:55;101236.91;;;11.67;62.90
39949;BME280;29070;48.102;-1.652;2023-04-26T01:20:55;101235.44;;;11.64;63.05
39949;BME280;29070;48.102;-1.652;2023-04-26T01:25:56;101226.94;;;11.62;63.14
39949;BME280;29070;48.102;-1.652;2023-04-26T01:30:56;101223.69;;;11.60;63.36
39949;BME280;29070;48.102;-1.652;2023-04-26T01:35:56;101230.59;;;11.61;63.34
39949;BME280;29070;48.102;-1.652;2023-04-26T01:40:57;101218.44;;;11.60;63.57
39949;BME280;29070;48.102;-1.652;2023-04-26T01:45:57;101216.41;;;11.62;63.81
39949;BME280;29070;48.102;-1.652;2023-04-26T01:50:57;101198.00;;;11.62;63.75
39949;BME280;29070;48.102;-1.652;2023-04-26T01:56:02;101201.03;;;11.59;63.75
39949;BME280;29070;48.102;-1.652;2023-04-26T02:01:07;101203.47;;;11.60;64.03
39949;BME280;29070;48.102;-1.652;2023-04-26T02:06:07;101203.69;;;11.59;63.80
39949;BME280;29070;48.102;-1.652;2023-04-26T02:11:07;101194.16;;;11.58;64.06
39949;BME280;29070;48.102;-1.652;2023-04-26T02:16:08;101197.41;;;11.60;64.12
39949;BME280;29070;48.102;-1.652;2023-04-26T02:21:10;101177.38;;;11.59;64.24
39949;BME280;29070;48.102;-1.652;2023-04-26T02:26:10;101179.38;;;11.57;64.33
39949;BME280;29070;48.102;-1.652;2023-04-26T02:31:11;101171.88;;;11.54;64.52
39949;BME280;29070;48.102;-1.652;2023-04-26T02:36:12;101165.59;;;11.55;64.38
39949;BME280;29070;48.102;-1.652;2023-04-26T02:41:12;101169.03;;;11.55;64.67
39949;BME280;29070;48.102;-1.652;2023-04-26T02:46:13;101169.44;;;11.52;64.82
39949;BME280;29070;48.102;-1.652;2023-04-26T02:51:13;101167.00;;;11.51;64.81
39949;BME280;29070;48.102;-1.652;2023-04-26T02:56:15;101164.38;;;11.51;64.80
39949;BME280;29070;48.102;-1.652;2023-04-26T03:01:15;101168.59;;;11.52;64.84
39949;BME280;29070;48.102;-1.652;2023-04-26T03:06:16;101158.31;;;11.50;65.15
39949;BME280;29070;48.102;-1.652;2023-04-26T03:11:17;101160.09;;;11.50;65.15
39949;BME280;29070;48.102;-1.652;2023-04-26T03:16:18;101155.84;;;11.49;65.25
39949;BME280;29070;48.102;-1.652;2023-04-26T03:21:22;101145.91;;;11.44;65.28
39949;BME280;29070;48.102;-1.652;2023-04-26T03:26:22;101144.91;;;11.45;65.47
39949;BME280;29070;48.102;-1.652;2023-04-26T03:31:23;101140.81;;;11.42;65.39
39949;BME280;29070;48.102;-1.652;2023-04-26T03:36:23;101129.31;;;11.43;65.46
39949;BME280;29070;48.102;-1.652;2023-04-26T03:41:24;101132.56;;;11.45;65.66
39949;BME280;29070;48.102;-1.652;2023-04-26T03:46:24;101122.25;;;11.44;65.61
39949;BME280;29070;48.102;-1.652;2023-04-26T03:51:25;101117.19;;;11.42;65.77
39949;BME280;29070;48.102;-1.652;2023-04-26T03:56:26;101128.09;;;11.39;65.87
39949;BME280;29070;48.102;-1.652;2023-04-26T04:01:27;101130.06;;;11.37;65.88
39949;BME280;29070;48.102;-1.652;2023-04-26T04:06:27;101121.19;;;11.38;65.96
39949;BME280;29070;48.102;-1.652;2023-04-26T04:11:28;101126.63;;;11.37;66.11
39949;BME280;29070;48.102;-1.652;2023-04-26T04:16:28;101129.84;;;11.32;65.98
39949;BME280;29070;48.102;-1.652;2023-04-26T04:21:28;101122.78;;;11.33;66.11
39949;BME280;29070;48.102;-1.652;2023-04-26T04:26:29;101125.59;;;11.31;66.26
39949;BME280;29070;48.102;-1.652;2023-04-26T04:31:29;101121.97;;;11.32;66.34
39949;BME280;29070;48.102;-1.652;2023-04-26T04:36:30;101121.31;;;11.30;66.45
39949;BME280;29070;48.102;-1.652;2023-04-26T04:41:31;101121.91;;;11.25;66.43
39949;BME280;29070;48.102;-1.652;2023-04-26T04:46:32;101121.91;;;11.25;66.64
39949;BME280;29070;48.102;-1.652;2023-04-26T04:51:32;101126.97;;;11.27;66.75
39949;BME280;29070;48.102;-1.652;2023-04-26T04:56:32;101127.34;;;11.24;66.89
39949;BME280;29070;48.102;-1.652;2023-04-26T05:01:33;101127.97;;;11.26;67.11
39949;BME280;29070;48.102;-1.652;2023-04-26T05:06:34;101126.78;;;11.29;67.23
39949;BME280;29070;48.102;-1.652;2023-04-26T05:11:35;101129.59;;;11.27;67.34
39949;BME280;29070;48.102;-1.652;2023-04-26T05:16:35;101140.84;;;11.21;67.29
39949;BME280;29070;48.102;-1.652;2023-04-26T05:21:37;101142.84;;;11.19;67.59
39949;BME280;29070;48.102;-1.652;2023-04-26T05:26:37;101141.63;;;11.15;67.75
39949;BME280;29070;48.102;-1.652;2023-04-26T05:31:38;101143.63;;;11.13;68.06
39949;BME280;29070;48.102;-1.652;2023-04-26T05:36:38;101150.50;;;11.14;68.18
39949;BME280;29070;48.102;-1.652;2023-04-26T05:41:38;101146.44;;;11.11;68.42
39949;BME280;29070;48.102;-1.652;2023-04-26T05:46:39;101139.53;;;11.10;68.69
39949;BME280;29070;48.102;-1.652;2023-04-26T05:51:40;101138.13;;;11.07;68.70
39949;BME280;29070;48.102;-1.652;2023-04-26T05:56:40;101134.22;;;11.03;68.96
39949;BME280;29070;48.102;-1.652;2023-04-26T06:01:40;101137.69;;;11.04;69.07
39949;BME280;29070;48.102;-1.652;2023-04-26T06:06:41;101147.59;;;11.09;69.46
39949;BME280;29070;48.102;-1.652;2023-04-26T06:11:41;101154.06;;;11.06;69.45
39949;BME280;29070;48.102;-1.652;2023-04-26T06:16:41;101156.06;;;11.04;69.63
39949;BME280;29070;48.102;-1.652;2023-04-26T06:21:42;101149.78;;;11.05;69.72
39949;BME280;29070;48.102;-1.652;2023-04-26T06:26:42;101154.50;;;11.10;69.94
39949;BME280;29070;48.102;-1.652;2023-04-26T06:31:43;101156.13;;;11.11;70.18
39949;BME280;29070;48.102;-1.652;2023-04-26T06:36:44;101153.72;;;11.16;70.23
39949;BME280;29070;48.102;-1.652;2023-04-26T06:41:45;101153.63;;;11.24;70.50
39949;BME280;29070;48.102;-1.652;2023-04-26T06:46:45;101149.00;;;11.26;70.42
39949;BME280;29070;48.102;-1.652;2023-04-26T06:51:45;101149.41;;;11.30;70.56
39949;BME280;29070;48.102;-1.652;2023-04-26T06:56:46;101149.84;;;11.33;70.75
39949;BME280;29070;48.102;-1.652;2023-04-26T07:01:47;101153.69;;;11.31;70.70
39949;BME280;29070;48.102;-1.652;2023-04-26T07:06:48;101148.25;;;11.32;70.72
39949;BME280;29070;48.102;-1.652;2023-04-26T07:11:48;101142.56;;;11.29;70.69
39949;BME280;29070;48.102;-1.652;2023-04-26T07:16:49;101141.34;;;11.31;70.93
39949;BME280;29070;48.102;-1.652;2023-04-26T07:21:49;101137.75;;;11.39;71.07
39949;BME280;29070;48.102;-1.652;2023-04-26T07:26:50;101140.09;;;11.49;71.19
39949;BME280;29070;48.102;-1.652;2023-04-26T07:31:50;101140.94;;;11.56;71.32
39949;BME280;29070;48.102;-1.652;2023-04-26T07:36:51;101131.06;;;11.58;71.19
39949;BME280;29070;48.102;-1.652;2023-04-26T07:41:51;101138.81;;;11.66;71.79
39949;BME280;29070;48.102;-1.652;2023-04-26T07:46:51;101136.63;;;11.76;71.46
39949;BME280;29070;48.102;-1.652;2023-04-26T07:51:52;101140.13;;;11.83;71.52
39949;BME280;29070;48.102;-1.652;2023-04-26T07:56:52;101135.63;;;11.77;71.39
39949;BME280;29070;48.102;-1.652;2023-04-26T08:01:53;101145.34;;;11.77;71.33
39949;BME280;29070;48.102;-1.652;2023-04-26T08:06:53;101144.53;;;11.76;71.34
39949;BME280;29070;48.102;-1.652;2023-04-26T08:11:54;101146.00;;;11.86;71.61
39949;BME280;29070;48.102;-1.652;2023-04-26T08:16:54;101147.91;;;11.92;71.90
39949;BME280;29070;48.102;-1.652;2023-04-26T08:21:55;101150.56;;;11.98;71.88
39949;BME280;29070;48.102;-1.652;2023-04-26T08:26:56;101152.84;;;12.08;71.86
39949;BME280;29070;48.102;-1.652;2023-04-26T08:31:58;101153.88;;;12.14;71.84
39949;BME280;29070;48.102;-1.652;2023-04-26T08:36:58;101160.81;;;12.22;71.72
39949;BME280;29070;48.102;-1.652;2023-04-26T08:42:04;101161.44;;;12.24;71.92
39949;BME280;29070;48.102;-1.652;2023-04-26T08:47:05;101166.94;;;12.29;71.88
39949;BME280;29070;48.102;-1.652;2023-04-26T08:52:12;101162.66;;;12.28;71.77
39949;BME280;29070;48.102;-1.652;2023-04-26T08:57:14;101158.25;;;12.35;72.03
39949;BME280;29070;48.102;-1.652;2023-04-26T09:02:22;101154.81;;;12.41;71.88
39949;BME280;29070;48.102;-1.652;2023-04-26T09:12:26;101171.50;;;12.55;71.88
39949;BME280;29070;48.102;-1.652;2023-04-26T09:17:31;101166.44;;;12.60;72.03
39949;BME280;29070;48.102;-1.652;2023-04-26T09:22:33;101167.88;;;12.63;72.00
39949;BME280;29070;48.102;-1.652;2023-04-26T09:27:37;101171.56;;;12.68;72.11
39949;BME280;29070;48.102;-1.652;2023-04-26T09:37:52;101196.50;;;12.86;72.15
39949;BME280;29070;48.102;-1.652;2023-04-26T09:43:03;101188.81;;;12.91;72.36
39949;BME280;29070;48.102;-1.652;2023-04-26T09:48:23;101181.16;;;13.03;72.54
39949;BME280;29070;48.102;-1.652;2023-04-26T09:53:33;101184.84;;;13.15;72.20
39949;BME280;29070;48.102;-1.652;2023-04-26T09:58:59;101185.66;;;13.22;72.39
39949;BME280;29070;48.102;-1.652;2023-04-26T10:04:01;101189.97;;;13.37;72.23
39949;BME280;29070;48.102;-1.652;2023-04-26T10:09:03;101188.75;;;13.46;72.12
39949;BME280;29070;48.102;-1.652;2023-04-26T10:14:05;101185.09;;;13.60;72.30
39949;BME280;29070;48.102;-1.652;2023-04-26T10:19:06;101176.34;;;13.73;72.12
39949;BME280;29070;48.102;-1.652;2023-04-26T10:24:07;101175.31;;;13.87;72.15
39949;BME280;29070;48.102;-1.652;2023-04-26T10:29:07;101166.56;;;14.07;72.13
39949;BME280;29070;48.102;-1.652;2023-04-26T10:34:26;101165.72;;;14.20;71.99
39949;BME280;29070;48.102;-1.652;2023-04-26T10:39:27;101167.72;;;14.31;71.80
39949;BME280;29070;48.102;-1.652;2023-04-26T10:49:44;101161.94;;;14.61;71.57
39949;BME280;29070;48.102;-1.652;2023-04-26T11:10:32;101164.09;;;15.09;71.19
39949;BME280;29070;48.102;-1.652;2023-04-26T11:15:34;101166.91;;;15.14;70.90
39949;BME280;29070;48.102;-1.652;2023-04-26T11:20:35;101168.09;;;15.18;70.53
39949;BME280;29070;48.102;-1.652;2023-04-26T11:25:38;101157.88;;;15.22;70.95
39949;BME280;29070;48.102;-1.652;2023-04-26T11:30:38;101174.78;;;15.53;71.03
39949;BME280;29070;48.102;-1.652;2023-04-26T11:35:38;101175.72;;;15.58;70.39
39949;BME280;29070;48.102;-1.652;2023-04-26T11:40:40;101177.34;;;15.59;70.34
39949;BME280;29070;48.102;-1.652;2023-04-26T11:45:41;101175.16;;;15.56;69.90
39949;BME280;29070;48.102;-1.652;2023-04-26T11:50:41;101177.84;;;15.75;70.21
39949;BME280;29070;48.102;-1.652;2023-04-26T11:55:43;101169.56;;;15.90;69.76
39949;BME280;29070;48.102;-1.652;2023-04-26T12:01:00;101157.22;;;16.02;69.66
39949;BME280;29070;48.102;-1.652;2023-04-26T12:06:04;101157.66;;;16.17;69.60
39949;BME280;29070;48.102;-1.652;2023-04-26T12:11:05;101156.13;;;16.10;69.52
39949;BME280;29070;48.102;-1.652;2023-04-26T12:16:08;101140.81;;;16.12;69.16
39949;BME280;29070;48.102;-1.652;2023-04-26T12:21:09;101153.91;;;16.07;68.89
39949;BME280;29070;48.102;-1.652;2023-04-26T12:26:09;101154.13;;;16.05;68.98
39949;BME280;29070;48.102;-1.652;2023-04-26T12:31:11;101148.19;;;16.10;68.68
39949;BME280;29070;48.102;-1.652;2023-04-26T12:36:12;101149.78;;;16.29;69.04
39949;BME280;29070;48.102;-1.652;2023-04-26T12:41:12;101162.56;;;16.51;68.84
39949;BME280;29070;48.102;-1.652;2023-04-26T12:46:13;101162.97;;;16.66;68.43
39949;BME280;29070;48.102;-1.652;2023-04-26T12:51:13;101159.41;;;16.91;68.51
39949;BME280;29070;48.102;-1.652;2023-04-26T12:56:13;101167.41;;;17.14;68.05
39949;BME280;29070;48.102;-1.652;2023-04-26T13:01:15;101172.63;;;17.33;67.27
39949;BME280;29070;48.102;-1.652;2023-04-26T13:06:16;101175.66;;;17.48;67.21
39949;BME280;29070;48.102;-1.652;2023-04-26T13:11:17;101179.81;;;17.68;66.95
39949;BME280;29070;48.102;-1.652;2023-04-26T13:16:17;101190.22;;;17.69;66.26
39949;BME280;29070;48.102;-1.652;2023-04-26T13:21:17;101187.78;;;17.56;65.98
39949;BME280;29070;48.102;-1.652;2023-04-26T13:26:18;101192.28;;;17.44;65.71
39949;BME280;29070;48.102;-1.652;2023-04-26T13:31:18;101193.84;;;17.33;65.57
39949;BME280;29070;48.102;-1.652;2023-04-26T13:36:19;101182.53;;;17.26;65.66
39949;BME280;29070;48.102;-1.652;2023-04-26T13:41:19;101169.19;;;17.21;65.51
39949;BME280;29070;48.102;-1.652;2023-04-26T13:46:21;101157.28;;;17.23;65.47
39949;BME280;29070;48.102;-1.652;2023-04-26T13:51:22;101152.59;;;17.37;65.97
39949;BME280;29070;48.102;-1.652;2023-04-26T13:56:24;101145.66;;;17.60;65.90
39949;BME280;29070;48.102;-1.652;2023-04-26T14:01:24;101143.13;;;17.77;65.17
39949;BME280;29070;48.102;-1.652;2023-04-26T14:06:25;101152.38;;;17.86;65.01
39949;BME280;29070;48.102;-1.652;2023-04-26T14:11:26;101150.75;;;17.73;64.76
39949;BME280;29070;48.102;-1.652;2023-04-26T14:16:26;101147.97;;;17.68;64.70
39949;BME280;29070;48.102;-1.652;2023-04-26T14:21:27;101143.47;;;17.68;64.41
39949;BME280;29070;48.102;-1.652;2023-04-26T14:26:27;101154.53;;;17.77;64.41
39949;BME280;29070;48.102;-1.652;2023-04-26T14:31:27;101161.13;;;17.86;64.57
39949;BME280;29070;48.102;-1.652;2023-04-26T14:36:29;101164.47;;;17.82;64.36
39949;BME280;29070;48.102;-1.652;2023-04-26T14:41:29;101160.91;;;18.00;64.35
39949;BME280;29070;48.102;-1.652;2023-04-26T14:46:30;101154.13;;;18.33;64.32
39949;BME280;29070;48.102;-1.652;2023-04-26T14:51:30;101145.16;;;18.51;63.55
39949;BME280;29070;48.102;-1.652;2023-04-26T14:56:34;101143.25;;;18.63;63.63
39949;BME280;29070;48.102;-1.652;2023-04-26T15:01:35;101148.56;;;18.92;63.57
39949;BME280;29070;48.102;-1.652;2023-04-26T15:06:36;101153.19;;;18.96;63.03
39949;BME280;29070;48.102;-1.652;2023-04-26T15:11:36;101151.44;;;18.73;62.64
39949;BME280;29070;48.102;-1.652;2023-04-26T15:16:37;101155.34;;;18.71;62.52
39949;BME280;29070;48.102;-1.652;2023-04-26T15:21:37;101154.47;;;18.65;62.74
39949;BME280;29070;48.102;-1.652;2023-04-26T15:26:37;101147.97;;;18.73;62.32
39949;BME280;29070;48.102;-1.652;2023-04-26T15:31:38;101141.25;;;18.82;62.48
39949;BME280;29070;48.102;-1.652;2023-04-26T15:36:38;101134.00;;;18.94;62.31
39949;BME280;29070;48.102;-1.652;2023-04-26T15:41:38;101132.84;;;18.90;62.29
39949;BME280;29070;48.102;-1.652;2023-04-26T15:46:39;101142.09;;;18.99;62.23
39949;BME280;29070;48.102;-1.652;2023-04-26T15:51:39;101141.41;;;18.92;61.97
39949;BME280;29070;48.102;-1.652;2023-04-26T15:56:40;101126.19;;;19.04;62.00
39949;BME280;29070;48.102;-1.652;2023-04-26T16:01:40;101124.75;;;19.14;61.37
39949;BME280;29070;48.102;-1.652;2023-04-26T16:06:41;101137.72;;;19.27;61.81
39949;BME280;29070;48.102;-1.652;2023-04-26T16:11:41;101136.19;;;19.31;61.43
39949;BME280;29070;48.102;-1.652;2023-04-26T16:16:41;101124.50;;;19.32;61.54
39949;BME280;29070;48.102;-1.652;2023-04-26T16:21:43;101127.06;;;19.27;61.32
39949;BME280;29070;48.102;-1.652;2023-04-26T16:26:43;101122.72;;;19.38;61.42
39949;BME280;29070;48.102;-1.652;2023-04-26T16:31:44;101123.69;;;19.32;61.07
39949;BME280;29070;48.102;-1.652;2023-04-26T16:36:44;101139.34;;;19.28;61.33
39949;BME280;29070;48.102;-1.652;2023-04-26T16:41:44;101144.16;;;19.31;60.89
39949;BME280;29070;48.102;-1.652;2023-04-26T16:46:45;101138.28;;;19.29;61.15
39949;BME280;29070;48.102;-1.652;2023-04-26T16:51:46;101138.94;;;19.19;61.16
39949;BME280;29070;48.102;-1.652;2023-04-26T16:56:57;101131.09;;;19.13;61.14
39949;BME280;29070;48.102;-1.652;2023-04-26T17:01:58;101142.47;;;19.08;61.20
39949;BME280;29070;48.102;-1.652;2023-04-26T17:06:58;101137.41;;;19.07;61.33
39949;BME280;29070;48.102;-1.652;2023-04-26T17:11:58;101127.56;;;19.07;61.47
39949;BME280;29070;48.102;-1.652;2023-04-26T17:16:59;101129.16;;;19.08;61.37
39949;BME280;29070;48.102;-1.652;2023-04-26T17:21:59;101124.25;;;19.00;61.62
39949;BME280;29070;48.102;-1.652;2023-04-26T17:27:00;101136.91;;;18.93;61.61
39949;BME280;29070;48.102;-1.652;2023-04-26T17:32:00;101133.34;;;18.87;61.37
39949;BME280;29070;48.102;-1.652;2023-04-26T17:37:00;101132.84;;;18.90;61.62
39949;BME280;29070;48.102;-1.652;2023-04-26T17:42:01;101137.13;;;18.91;61.68
39949;BME280;29070;48.102;-1.652;2023-04-26T17:47:02;101145.75;;;18.81;61.75
39949;BME280;29070;48.102;-1.652;2023-04-26T17:52:02;101141.50;;;18.68;61.77
39949;BME280;29070;48.102;-1.652;2023-04-26T17:57:03;101137.16;;;18.62;61.71
39949;BME280;29070;48.102;-1.652;2023-04-26T18:02:03;101141.22;;;18.53;61.98
39949;BME280;29070;48.102;-1.652;2023-04-26T18:07:03;101151.00;;;18.36;61.94
39949;BME280;29070;48.102;-1.652;2023-04-26T18:12:04;101137.56;;;18.14;61.91
39949;BME280;29070;48.102;-1.652;2023-04-26T18:17:04;101137.63;;;18.19;61.94
39949;BME280;29070;48.102;-1.652;2023-04-26T18:22:04;101131.06;;;18.21;62.04
39949;BME280;29070;48.102;-1.652;2023-04-26T18:27:06;101153.16;;;18.10;62.46
39949;BME280;29070;48.102;-1.652;2023-04-26T18:32:07;101153.72;;;18.12;62.68
39949;BME280;29070;48.102;-1.652;2023-04-26T18:37:07;101160.44;;;18.03;62.34
39949;BME280;29070;48.102;-1.652;2023-04-26T18:42:08;101162.31;;;17.90;62.27
39949;BME280;29070;48.102;-1.652;2023-04-26T18:47:08;101160.91;;;17.76;62.29
39949;BME280;29070;48.102;-1.652;2023-04-26T18:52:09;101165.53;;;17.69;62.14
39949;BME280;29070;48.102;-1.652;2023-04-26T18:57:09;101166.19;;;17.52;62.32
39949;BME280;29070;48.102;-1.652;2023-04-26T19:02:10;101167.56;;;17.43;62.45
39949;BME280;29070;48.102;-1.652;2023-04-26T19:07:11;101167.31;;;17.33;62.35
39949;BME280;29070;48.102;-1.652;2023-04-26T19:12:11;101171.69;;;17.15;62.70
39949;BME280;29070;48.102;-1.652;2023-04-26T19:17:11;101179.47;;;16.99;62.71
39949;BME280;29070;48.102;-1.652;2023-04-26T19:22:12;101186.19;;;16.83;62.96
39949;BME280;29070;48.102;-1.652;2023-04-26T19:27:12;101203.88;;;16.70;63.07
39949;BME280;29070;48.102;-1.652;2023-04-26T19:32:12;101196.56;;;16.54;63.17
39949;BME280;29070;48.102;-1.652;2023-04-26T19:37:13;101196.72;;;16.41;63.43
39949;BME280;29070;48.102;-1.652;2023-04-26T19:42:14;101202.00;;;16.22;63.31
39949;BME280;29070;48.102;-1.652;2023-04-26T19:47:14;101208.47;;;16.08;63.73
39949;BME280;29070;48.102;-1.652;2023-04-26T19:52:15;101226.56;;;15.92;64.16
39949;BME280;29070;48.102;-1.652;2023-04-26T19:57:15;101241.75;;;15.72;64.39
39949;BME280;29070;48.102;-1.652;2023-04-26T20:02:16;101240.03;;;15.59;64.74
39949;BME280;29070;48.102;-1.652;2023-04-26T20:07:16;101242.59;;;15.47;64.68
39949;BME280;29070;48.102;-1.652;2023-04-26T20:12:17;101255.88;;;15.34;65.01
39949;BME280;29070;48.102;-1.652;2023-04-26T20:17:17;101254.94;;;15.21;65.45
39949;BME280;29070;48.102;-1.652;2023-04-26T20:22:17;101264.56;;;15.09;65.67
39949;BME280;29070;48.102;-1.652;2023-04-26T20:27:18;101263.19;;;15.00;65.92
39949;BME280;29070;48.102;-1.652;2023-04-26T20:32:18;101272.00;;;14.87;66.08
39949;BME280;29070;48.102;-1.652;2023-04-26T20:37:18;101276.50;;;14.80;66.51
39949;BME280;29070;48.102;-1.652;2023-04-26T20:42:19;101274.69;;;14.74;66.66
39949;BME280;29070;48.102;-1.652;2023-04-26T20:47:19;101271.06;;;14.61;66.68
39949;BME280;29070;48.102;-1.652;2023-04-26T20:52:19;101269.66;;;14.45;66.92
39949;BME280;29070;48.102;-1.652;2023-04-26T20:57:20;101279.84;;;14.35;67.24
39949;BME280;29070;48.102;-1.652;2023-04-26T21:02:20;101288.41;;;14.24;67.34
39949;BME280;29070;48.102;-1.652;2023-04-26T21:07:21;101293.28;;;14.14;67.77
39949;BME280;29070;48.102;-1.652;2023-04-26T21:12:21;101297.34;;;14.03;68.02
39949;BME280;29070;48.102;-1.652;2023-04-26T21:17:21;101302.81;;;13.95;68.10
39949;BME280;29070;48.102;-1.652;2023-04-26T21:22:22;101304.03;;;13.85;68.07
39949;BME280;29070;48.102;-1.652;2023-04-26T21:27:22;101304.63;;;13.74;68.69
39949;BME280;29070;48.102;-1.652;2023-04-26T21:32:23;101320.84;;;13.71;68.71
39949;BME280;29070;48.102;-1.652;2023-04-26T21:37:23;101304.19;;;13.64;69.04
39949;BME280;29070;48.102;-1.652;2023-04-26T21:42:23;101309.03;;;13.53;69.31
39949;BME280;29070;48.102;-1.652;2023-04-26T21:47:24;101308.41;;;13.45;69.33
39949;BME280;29070;48.102;-1.652;2023-04-26T21:52:24;101310.63;;;13.34;69.52
39949;BME280;29070;48.102;-1.652;2023-04-26T21:57:25;101306.91;;;13.22;69.74
39949;BME280;29070;48.102;-1.652;2023-04-26T22:02:25;101306.09;;;13.15;70.00
39949;BME280;29070;48.102;-1.652;2023-04-26T22:07:25;101304.41;;;13.07;70.11
39949;BME280;29070;48.102;-1.652;2023-04-26T22:12:26;101302.78;;;13.00;70.25
39949;BME280;29070;48.102;-1.652;2023-04-26T22:17:26;101304.75;;;12.91;70.38
39949;BME280;29070;48.102;-1.652;2023-04-26T22:22:27;101304.09;;;12.82;70.76
39949;BME280;29070;48.102;-1.652;2023-04-26T22:27:27;101302.69;;;12.80;70.84
39949;BME280;29070;48.102;-1.652;2023-04-26T22:32:28;101299.00;;;12.74;71.01
39949;BME280;29070;48.102;-1.652;2023-04-26T22:37:28;101298.53;;;12.64;71.16
39949;BME280;29070;48.102;-1.652;2023-04-26T22:42:29;101296.88;;;12.56;71.43
39949;BME280;29070;48.102;-1.652;2023-04-26T22:47:29;101296.47;;;12.52;71.73
39949;BME280;29070;48.102;-1.652;2023-04-26T22:52:30;101289.13;;;12.48;71.80
39949;BME280;29070;48.102;-1.652;2023-04-26T22:57:30;101292.72;;;12.40;71.85
39949;BME280;29070;48.102;-1.652;2023-04-26T23:02:31;101297.16;;;12.33;72.16
39949;BME280;29070;48.102;-1.652;2023-04-26T23:07:32;101300.34;;;12.28;72.63
39949;BME280;29070;48.102;-1.652;2023-04-26T23:12:32;101303.56;;;12.24;72.55
39949;BME280;29070;48.102;-1.652;2023-04-26T23:17:33;101303.50;;;12.17;72.23
39949;BME280;29070;48.102;-1.652;2023-04-26T23:22:33;101307.28;;;12.08;72.41
39949;BME280;29070;48.102;-1.652;2023-04-26T23:27:34;101320.38;;;12.01;72.66
39949;BME280;29070;48.102;-1.652;2023-04-26T23:32:34;101331.44;;;11.96;72.89
39949;BME280;29070;48.102;-1.652;2023-04-26T23:37:34;101342.91;;;11.89;72.97
39949;BME280;29070;48.102;-1.652;2023-04-26T23:42:35;101348.47;;;11.79;72.82
39949;BME280;29070;48.102;-1.652;2023-04-26T23:47:36;101343.94;;;11.73;73.05
39949;BME280;29070;48.102;-1.652;2023-04-26T23:52:36;101343.25;;;11.64;73.15
39949;BME280;29070;48.102;-1.652;2023-04-26T23:57:36;101340.50;;;11.51;72.92
